Yakima, Washington
Current Conditions -  °F | °C
As of 5:53 PM on Saturday 22 Nov 2014 (Local Time) from KYKM Reporting Station
Clear Clear  
Wind Chill: 39°   Ceiling: Unl
Heat Index: 39°   Visibility: 10mi
Dew Point: 30°   Wind: 3mph
Humidity: 70%   Direction: 290°WNW
Pressure: 29.95"   Gusts: NA
Location:  46.6°N, 120.5°W
Report Text: KYKM 230153Z 29003KT 10SM CLR 04/M01 A2995 RMK AO2 SLP151 T00391011
Loading
Personal Weather Stations






























Interactive Weather Map New forecast layout! Learn more

10-Day Weather Forecast

Advertisements
Track Severe Weather on mobile